x

Cape Elizabeth- 45nm Nw Of Aberdeen, Wa (46041) Wave Buoy

11:50 - Tue 6th Dec 2016 All times are PST. -8 hours from GMT.

  • Sig Wave height 6.9ft
  • Swell Direction
  • Peak Period 11s
  • Average Period 7s
  • Wind
    20mph, 25mph gusts
  • Sea Temp 52°f
  • Aire Temp 41°f
  • Sea Pressure 1026.9mb
  • Cape Elizabeth- 45nm Nw Of Aberdeen, Wa
  • Cape Elizabeth- 45nm Nw Of Aberdeen, Wa

More Historic Weather Station data

Upgrade to MSW Pro to gain access to the past 30 days of data for over 8000 Wavebouys and Weather Stations around the globe.

Join Pro

Comparision Forecast

View Surf forecast
   
mar 12/06 11:50 7ft 11s 7s 20 25 mph 1026.9mb 52f 41f
10:50 7ft 11s 8s 18 22 mph 1026.3mb 52f 42f
9:50 7ft 11s 8s 2 7 mph 1026.1mb 52f 43f
8:50 7ft 10s 8s 4 7 mph 1025.8mb 53f 42f
7:50 8ft 11s 9s 7 9 mph 1025.1mb 53f 43f
3:50 7ft 12s 9s 9 11 mph 1023.7mb 54f 42f
2:50 7ft 12s 8s 9 13 mph 1023.2mb 53f 42f
1:50 7.5ft 12s 9s 9 11 mph 1022.5mb 53f 42f
12:50 7.5ft 13s 9s 9 13 mph 1022.1mb 52f 42f
11:50 7ft 10s 8s 11 13 mph 1021.8mb 51f 42f
8:50 9.5ft 13s 9s 9 11 mph 1020.1mb 51f 40f
7:50 10ft 14s 10s 7 11 mph 1019mb 52f 40f
6:50 10ft 13s 10s 9 11 mph 1018.1mb 52f 40f
5:50 10ft 14s 10s 9 11 mph 1017.4mb 52f 41f
4:50 10ft 13s 10s 2 9 mph 1017.2mb 52f 40f
3:50 9.5ft 14s 9s 7 9 mph 1017mb 52f 40f
2:50 10.5ft 15s 10s 9 13 mph 1016.8mb 53f 40f
1:50 10.5ft 14s 10s 11 13 mph 1016.3mb 52f 40f
12:50 11ft 14s 10s 11 16 mph 1016.2mb 52f 41f
lun 12/05 11:50 11ft 14s 10s 9 13 mph 1016.1mb 52f 41f
10:50 11ft 14s 10s 7 11 mph 1015.9mb 52f 41f
9:50 10ft 15s 9s 4 9 mph 1015.9mb 52f 42f
8:50 10.5ft 13s 9s 2 7 mph 1015.7mb 52f 40f
7:50 11ft 13s 10s 7 9 mph 1015.7mb 52f 40f
6:50 11.5ft 14s 10s 7 11 mph 1015.8mb 52f 40f
5:50 10.5ft 12s 9s 4 11 mph 1015.7mb 52f 40f
4:50 12.5ft 14s 10s 4 7 mph 1015.8mb 53f 38f
3:50 11.5ft 13s 10s 16 22 mph 1015.9mb 53f 39f
2:50 11.5ft 14s 9s 9 13 mph 1015.7mb 53f 41f
1:50 9.5ft 13s 9s 9 16 mph 1016mb 53f 40f
12:50 11ft 14s 9s 13 18 mph 1016.7mb 53f 40f
11:50 10.5ft 14s 8s 13 18 mph 1017.3mb 53f 40f
10:50 11ft 13s 9s 4 9 mph 1017.6mb 53f 40f
9:50 11ft 14s 8s 11 16 mph 1016.9mb 53f 42f
8:50 11ft 14s 8s 7 13 mph 1017.2mb 53f 42f
7:50 12ft 13s 8s 13 20 mph 1017.2mb 53f 43f
6:50 12ft 14s 8s 16 20 mph 1016.8mb 53f 46f
5:50 12.5ft 14s 8s 18 22 mph 1016.9mb 53f 46f
4:50 13ft 14s 9s 22 29 mph 1017.2mb 53f 45f
3:50 13ft 14s 9s 7 11 mph 1017.9mb 53f 43f
2:50 13ft 15s 8s 16 20 mph 1018.7mb 53f 44f
1:50 14ft 15s 9s 22 27 mph 1018.7mb 53f 43f
12:50 12ft 14s 9s 20 31 mph 1020.1mb 53f 42f
dom 12/04 11:50 13ft 14s 9s 9 13 mph 1020.6mb 53f 43f
10:50 12.5ft 14s 9s 4 7 mph 1021.4mb 53f 41f
9:50 14ft 14s 9s 11 20 mph 1021.3mb 53f 42f
8:50 13ft 13s 9s 4 9 mph 1021.2mb 53f 42f
7:50 14.5ft 14s 9s 4 9 mph 1021.5mb 53f 40f
6:50 14ft 15s 8s 11 18 mph 1021mb 53f 43f
5:50 15.5ft 14s 9s 22 31 mph 1020.5mb 53f 44f
4:50 15ft 15s 8s 25 29 mph 1020.4mb 53f 44f
3:50 16ft 15s 8s 22 29 mph 1020.3mb 53f 46f
2:50 15.5ft 14s 8s 18 25 mph 1020.1mb 53f 47f
1:50 16.5ft 14s 9s 25 31 mph 1019.8mb 54f 46f
12:50 16.5ft 16s 8s 29 34 mph 1019.5mb 54f 47f
11:50 15.5ft 15s 8s 27 34 mph 1019.3mb 55f 48f
10:50 14ft 15s 8s 29 36 mph 1019.2mb 55f 48f
9:50 16.5ft 15s 9s 29 38 mph 1018.6mb 55f 48f
8:50 15ft 15s 8s 29 36 mph 1018mb 55f 48f
7:50 15ft 14s 8s 27 34 mph 1017.8mb 55f 48f
6:50 14ft 14s 8s 27 34 mph 1017.6mb 55f 47f
5:50 15ft 14s 9s 25 31 mph 1017.3mb 55f 47f
4:50 14ft 15s 8s 27 36 mph 1017.4mb 55f 47f
3:50 15.5ft 15s 9s 27 34 mph 1017.6mb 55f 47f
2:50 13ft 15s 9s 20 29 mph 1018mb 55f 47f
12:50 15.5ft 15s 10s 22 25 mph 1019mb 55f 46f
sáb 12/03 11:50 13.5ft 13s 9s 22 27 mph 1019.6mb 55f 47f
10:50 12.5ft 14s 9s 20 25 mph 1020mb 55f 47f
9:50 14ft 15s 9s 18 25 mph 1020.2mb 55f 47f
8:50 14ft 15s 9s 22 29 mph 1020.6mb 55f 47f
7:50 15.5ft 15s 10s 18 25 mph 1020.8mb 56f 49f
6:50 15.5ft 15s 10s 22 29 mph 1021mb 56f 49f
5:50 16.5ft 16s 10s 18 25 mph 1021.4mb 56f 50f
4:50 15.5ft 16s 10s 20 25 mph 1022mb 56f 50f
3:50 14.5ft 16s 10s 20 25 mph 1022.8mb 56f 51f
2:50 18ft 16s 11s 18 20 mph 1023.4mb 56f 51f
1:50 17.5ft 16s 11s 20 25 mph 1023.9mb 56f 51f
12:50 14.5ft 16s 10s 18 22 mph 1025mb 56f 52f
11:50 16.5ft 14s 10s 18 25 mph 1025.7mb 56f 52f
10:50 18ft 17s 11s 18 22 mph 1025.7mb 56f 51f
9:50 16.5ft 16s 11s 18 20 mph 1025.7mb 56f 51f
8:50 17ft 17s 11s 11 18 mph 1025.9mb 56f 51f